Time;durP1;ratioP1;P1;durP2;ratioP2;P2;SDS_P1;SDS_P2;PMS_P1;PMS_P2;Temp;Humidity;BMP_temperature;BMP_pressure;BME280_temperature;BME280_humidity;BME280_pressure;Samples;Min_cycle;Max_cycle;Signal;HPM_P1;HPM_P2
2023/03/02 00:02:07;;;;;;;20.15;12.38;;;4.00;99.90;;;;;;5031563;28;20397;-84
2023/03/02 00:04:33;;;;;;;19.60;12.50;;;2.80;99.90;;;;;;5031937;28;20056;-85
2023/03/02 00:07:07;;;;;;;23.17;13.82;;;1.30;99.90;;;;;;5031588;28;20037;-84
2023/03/02 00:09:34;;;;;;;28.73;16.15;;;2.80;99.90;;;;;;5049725;28;20073;-85
2023/03/02 00:11:59;;;;;;;26.52;15.43;;;2.80;99.90;;;;;;5048124;28;20132;-85
2023/03/02 00:14:25;;;;;;;23.00;14.80;;;2.80;99.90;;;;;;5011995;28;20558;-85
2023/03/02 00:16:51;;;;;;;22.73;14.32;;;4.20;99.90;;;;;;4990090;28;20040;-85
2023/03/02 00:19:16;;;;;;;26.50;15.63;;;2.70;99.90;;;;;;5023896;28;20514;-84
2023/03/02 00:21:42;;;;;;;28.80;16.98;;;2.70;99.90;;;;;;5024610;28;20055;-85
2023/03/02 00:24:08;;;;;;;27.90;16.38;;;3.70;99.90;;;;;;5048425;28;20044;-85
2023/03/02 00:26:35;;;;;;;25.27;15.23;;;3.00;99.90;;;;;;5047920;28;20040;-85
2023/03/02 00:29:01;;;;;;;29.38;16.70;;;2.60;99.90;;;;;;5033297;28;20037;-84
2023/03/02 00:31:26;;;;;;;28.83;16.30;;;2.60;99.90;;;;;;5028353;28;20045;-84
2023/03/02 00:33:53;;;;;;;24.63;15.52;;;2.60;99.90;;;;;;5031501;28;20432;-85
2023/03/02 00:36:20;;;;;;;27.17;15.35;;;2.50;99.90;;;;;;5031090;28;20120;-84
2023/03/02 00:38:46;;;;;;;28.75;16.38;;;2.60;99.90;;;;;;5049921;28;20041;-84
2023/03/02 00:41:14;;;;;;;31.10;17.02;;;3.60;99.90;;;;;;5034693;28;20569;-84
2023/03/02 00:43:40;;;;;;;32.25;18.30;;;2.50;99.90;;;;;;5052096;28;20665;-84
2023/03/02 00:46:14;;;;;;;28.77;17.83;;;2.60;99.90;;;;;;5034769;28;20044;-85
2023/03/02 00:48:40;;;;;;;34.58;18.75;;;2.50;99.90;;;;;;5035280;28;20091;-85
2023/03/02 00:51:06;;;;;;;35.78;19.25;;;2.50;99.90;;;;;;5014883;28;20510;-85
2023/03/02 00:53:33;;;;;;;36.17;19.48;;;3.10;99.90;;;;;;5030372;28;20045;-84
2023/03/02 00:56:00;;;;;;;33.45;19.58;;;2.50;99.90;;;;;;5014979;28;20066;-84
2023/03/02 00:58:26;;;;;;;34.47;19.02;;;3.40;99.90;;;;;;5033607;28;20065;-85
2023/03/02 01:00:52;;;;;;;31.98;18.40;;;2.50;99.90;;;;;;5038890;28;20482;-84
2023/03/02 01:03:18;;;;;;;35.17;19.63;;;2.50;99.90;;;;;;5015517;28;20041;-84
2023/03/02 01:05:44;;;;;;;35.38;19.85;;;2.50;99.90;;;;;;5014542;28;20135;-84
2023/03/02 01:08:10;;;;;;;31.98;19.55;;;2.60;99.90;;;;;;5018119;28;20099;-84
2023/03/02 01:10:36;;;;;;;30.13;17.48;;;2.90;99.90;;;;;;5034735;28;20041;-84
2023/03/02 01:13:02;;;;;;;29.55;16.52;;;2.50;99.90;;;;;;5034529;28;20171;-84
2023/03/02 01:15:28;;;;;;;28.55;16.60;;;2.50;99.90;;;;;;5034861;28;20157;-85
2023/03/02 01:17:54;;;;;;;26.05;15.85;;;3.80;99.90;;;;;;5034474;28;20052;-83
2023/03/02 01:20:19;;;;;;;28.55;17.15;;;2.40;99.90;;;;;;5034409;28;20129;-84
2023/03/02 01:22:45;;;;;;;28.02;16.15;;;2.40;99.90;;;;;;5014396;28;20049;-84
2023/03/02 01:25:12;;;;;;;30.23;17.45;;;2.30;99.90;;;;;;5030772;28;20052;-84
2023/03/02 01:27:38;;;;;;;28.20;16.50;;;2.40;99.90;;;;;;5050374;28;20490;-84
2023/03/02 01:30:04;;;;;;;28.50;15.68;;;2.40;99.90;;;;;;5016227;28;20052;-84
2023/03/02 01:32:30;;;;;;;31.98;17.73;;;2.40;99.90;;;;;;5039128;28;20531;-85
2023/03/02 01:34:55;;;;;;;30.38;17.30;;;2.40;99.90;;;;;;5034481;28;20114;-83
2023/03/02 01:37:21;;;;;;;34.35;18.27;;;2.40;99.90;;;;;;5014003;28;20511;-84
2023/03/02 01:39:48;;;;;;;31.60;17.75;;;2.40;99.90;;;;;;5024948;28;20037;-84
2023/03/02 01:42:14;;;;;;;29.88;17.73;;;3.40;99.90;;;;;;5017143;28;20048;-84
2023/03/02 01:44:58;;;;;;;27.45;15.55;;;3.30;99.90;;;;;;5026900;28;20044;-85
2023/03/02 01:47:34;;;;;;;25.30;15.43;;;2.40;99.90;;;;;;5050605;28;20051;-84
2023/03/02 01:50:19;;;;;;;28.08;15.85;;;2.30;99.90;;;;;;5033078;28;20045;-85
2023/03/02 01:52:46;;;;;;;26.50;15.68;;;3.70;99.90;;;;;;5050152;28;20383;-85
2023/03/02 01:55:14;;;;;;;26.65;16.35;;;3.50;99.90;;;;;;5050462;28;20048;-84
2023/03/02 01:57:44;;;;;;;25.17;15.35;;;3.60;99.90;;;;;;5050174;28;20041;-84
2023/03/02 02:00:18;;;;;;;25.20;15.38;;;3.70;99.90;;;;;;5033660;28;20044;-84
2023/03/02 02:02:44;;;;;;;26.35;16.08;;;2.40;99.90;;;;;;5033481;28;20041;-84
2023/03/02 02:05:14;;;;;;;27.08;15.30;;;2.40;99.90;;;;;;5050349;28;20040;-85
2023/03/02 02:07:40;;;;;;;24.77;15.50;;;4.00;99.90;;;;;;5039388;28;20514;-85
2023/03/02 02:10:07;;;;;;;29.88;16.65;;;3.40;99.90;;;;;;5031576;28;20056;-85
2023/03/02 02:12:33;;;;;;;26.98;15.75;;;2.30;99.90;;;;;;5003992;28;20414;-83
2023/03/02 02:15:00;;;;;;;28.60;16.35;;;2.30;99.90;;;;;;5046471;28;20048;-85
2023/03/02 02:17:28;;;;;;;27.48;16.05;;;3.00;99.90;;;;;;5033671;28;20425;-84
2023/03/02 02:20:06;;;;;;;27.08;17.08;;;2.40;99.90;;;;;;5015523;28;20056;-86
2023/03/02 02:22:43;;;;;;;27.02;16.52;;;2.10;99.90;;;;;;5049532;28;20044;-84
2023/03/02 02:25:20;;;;;;;26.73;16.17;;;2.30;99.90;;;;;;5033097;28;20036;-84
2023/03/02 02:27:46;;;;;;;27.95;16.35;;;2.30;99.90;;;;;;5032879;28;20044;-85
2023/03/02 02:30:14;;;;;;;27.85;16.10;;;2.30;99.90;;;;;;5033022;28;20033;-84
2023/03/02 02:32:42;;;;;;;29.52;16.90;;;2.20;99.90;;;;;;5032990;28;20549;-85
2023/03/02 02:35:20;;;;;;;28.70;17.05;;;2.90;99.90;;;;;;5033252;28;20075;-84
2023/03/02 02:37:56;;;;;;;28.77;16.75;;;2.30;99.90;;;;;;5032771;28;20494;-84
2023/03/02 02:40:48;;;;;;;26.20;15.68;;;2.30;99.90;;;;;;5049450;28;20033;-84
2023/03/02 02:43:17;;;;;;;28.75;16.85;;;2.30;99.90;;;;;;5033128;28;20436;-84
2023/03/02 02:45:45;;;;;;;26.98;15.82;;;2.20;99.90;;;;;;5049031;28;20060;-84
2023/03/02 02:48:15;;;;;;;29.38;17.88;;;3.80;99.90;;;;;;5049825;28;20128;-85
2023/03/02 02:50:43;;;;;;;27.65;17.45;;;3.80;99.90;;;;;;5049384;28;20033;-85
2023/03/02 02:53:33;;;;;;;27.63;16.00;;;2.30;99.90;;;;;;5032850;28;20036;-84
2023/03/02 02:56:01;;;;;;;31.90;18.17;;;2.20;99.90;;;;;;5048703;28;20045;-83
2023/03/02 02:58:36;;;;;;;28.65;17.80;;;2.20;99.90;;;;;;5065857;28;20075;-84
2023/03/02 03:01:02;;;;;;;28.85;17.08;;;3.90;99.90;;;;;;5048660;28;20299;-85
2023/03/02 03:03:35;;;;;;;32.35;19.63;;;2.20;99.90;;;;;;5033346;28;20040;-84
2023/03/02 03:06:07;;;;;;;31.05;19.15;;;2.20;99.90;;;;;;5048922;28;20044;-85
2023/03/02 03:08:44;;;;;;;30.70;17.90;;;2.20;99.90;;;;;;5032485;28;20569;-85
2023/03/02 03:11:18;;;;;;;29.60;18.92;;;2.10;99.90;;;;;;5032210;28;20379;-86
2023/03/02 03:13:45;;;;;;;33.83;18.70;;;2.10;99.90;;;;;;5049093;28;20453;-85
2023/03/02 03:16:15;;;;;;;30.85;18.58;;;2.10;99.90;;;;;;5032273;28;20068;-84
2023/03/02 03:18:48;;;;;;;34.20;20.08;;;2.00;99.90;;;;;;5032362;28;20080;-84
2023/03/02 03:21:17;;;;;;;33.92;19.10;;;2.00;99.90;;;;;;5048600;28;20123;-86
2023/03/02 03:23:43;;;;;;;32.88;19.48;;;2.80;99.90;;;;;;5049286;28;20406;-84
2023/03/02 03:26:09;;;;;;;32.60;18.45;;;2.00;99.90;;;;;;5049727;28;20046;-85
2023/03/02 03:28:35;;;;;;;36.88;21.10;;;2.00;99.90;;;;;;5012619;28;20295;-84
2023/03/02 03:31:01;;;;;;;34.28;19.90;;;3.60;99.90;;;;;;5041884;28;20310;-84
2023/03/02 03:33:27;;;;;;;34.13;19.67;;;2.10;99.90;;;;;;5012361;28;20041;-85
2023/03/02 03:35:52;;;;;;;34.58;19.67;;;2.60;99.90;;;;;;5024428;28;20098;-84
2023/03/02 03:38:18;;;;;;;36.47;20.50;;;2.00;99.90;;;;;;5012275;28;20045;-83
2023/03/02 03:40:44;;;;;;;34.13;20.30;;;2.00;99.90;;;;;;5003755;28;20045;-85
2023/03/02 03:43:12;;;;;;;37.33;20.85;;;3.70;99.90;;;;;;5045191;28;20124;-85
2023/03/02 03:45:38;;;;;;;36.42;19.92;;;1.90;99.90;;;;;;5022599;28;20044;-84
2023/03/02 03:48:04;;;;;;;40.00;20.88;;;1.90;99.90;;;;;;5048818;28;20041;-84
2023/03/02 03:50:30;;;;;;;37.38;20.73;;;1.90;99.90;;;;;;5048696;28;20383;-87
2023/03/02 03:52:57;;;;;;;39.03;21.33;;;1.90;99.90;;;;;;5031319;28;20053;-85
2023/03/02 03:55:23;;;;;;;40.92;22.23;;;1.90;99.90;;;;;;5032057;28;20044;-84
2023/03/02 03:57:49;;;;;;;43.53;23.13;;;1.90;99.90;;;;;;5031931;28;20041;-85
2023/03/02 04:00:18;;;;;;;52.25;25.20;;;2.60;99.90;;;;;;5015124;28;20037;-85
2023/03/02 04:02:44;;;;;;;50.53;25.58;;;1.90;99.90;;;;;;5015478;28;20283;-84
2023/03/02 04:05:10;;;;;;;51.60;25.10;;;1.90;99.90;;;;;;5049671;28;20036;-85
2023/03/02 04:07:37;;;;;;;53.78;24.98;;;1.90;99.90;;;;;;5031391;28;20047;-84
2023/03/02 04:10:04;;;;;;;49.95;25.27;;;3.60;99.90;;;;;;5048764;28;20480;-84
2023/03/02 04:12:31;;;;;;;63.10;27.65;;;1.90;99.90;;;;;;5021565;28;20040;-85
2023/03/02 04:14:57;;;;;;;55.90;26.30;;;3.70;99.90;;;;;;5052329;28;20044;-84
2023/03/02 04:17:23;;;;;;;72.60;29.70;;;1.90;99.90;;;;;;5015393;28;20048;-84
2023/03/02 04:19:49;;;;;;;70.93;29.85;;;1.90;99.90;;;;;;5033930;28;20072;-85
2023/03/02 04:22:15;;;;;;;76.32;29.35;;;1.90;99.90;;;;;;5034982;28;20033;-84
2023/03/02 04:24:42;;;;;;;82.70;30.00;;;1.90;99.90;;;;;;5015841;28;20045;-85
2023/03/02 04:27:08;;;;;;;73.75;29.77;;;3.80;99.90;;;;;;5005603;28;20052;-84
2023/03/02 04:29:34;;;;;;;87.43;31.67;;;1.50;99.90;;;;;;5051378;28;20074;-85
2023/03/02 04:32:00;;;;;;;81.60;31.52;;;1.90;99.90;;;;;;5051972;28;20049;-85
2023/03/02 04:34:26;;;;;;;84.63;31.75;;;1.80;99.90;;;;;;5017498;28;20050;-85
2023/03/02 04:36:52;;;;;;;88.70;33.25;;;1.90;99.90;;;;;;5031900;28;20037;-85
2023/03/02 04:39:18;;;;;;;84.18;33.78;;;1.90;99.90;;;;;;5035548;28;20372;-84
2023/03/02 04:41:45;;;;;;;96.07;31.60;;;1.80;99.90;;;;;;5014972;28;20047;-85
2023/03/02 04:44:11;;;;;;;94.82;32.40;;;3.10;99.90;;;;;;4999366;28;20116;-84
2023/03/02 04:46:37;;;;;;;94.53;31.83;;;1.90;99.90;;;;;;5034959;28;20297;-84
2023/03/02 04:49:03;;;;;;;117.00;33.03;;;2.80;99.90;;;;;;5035414;28;20081;-84
2023/03/02 04:51:39;;;;;;;106.90;30.25;;;1.80;99.90;;;;;;5034830;28;20056;-84
2023/03/02 04:54:16;;;;;;;88.30;26.95;;;1.80;99.90;;;;;;5051416;28;20098;-85
2023/03/02 04:56:42;;;;;;;88.30;25.40;;;1.70;99.90;;;;;;5034334;28;20037;-85
2023/03/02 04:59:07;;;;;;;97.75;26.60;;;1.50;99.90;;;;;;5032828;28;20095;-84
2023/03/02 05:01:33;;;;;;;109.03;27.30;;;1.60;99.90;;;;;;5034299;28;20127;-84
2023/03/02 05:03:59;;;;;;;93.82;25.77;;;1.60;99.90;;;;;;5035192;28;20056;-83
2023/03/02 05:06:25;;;;;;;93.10;26.73;;;1.60;99.90;;;;;;5034444;28;20544;-84
2023/03/02 05:08:52;;;;;;;90.00;26.23;;;1.60;99.90;;;;;;5015277;28;20264;-84
2023/03/02 05:11:21;;;;;;;76.80;23.65;;;1.60;99.90;;;;;;5051684;28;20045;-85
2023/03/02 05:13:49;;;;;;;72.95;23.63;;;1.50;99.90;;;;;;5034740;28;20530;-85
2023/03/02 05:16:15;;;;;;;79.60;22.90;;;1.50;99.90;;;;;;5050841;28;20041;-84
2023/03/02 05:18:40;;;;;;;77.72;24.67;;;1.50;99.90;;;;;;5023114;28;20045;-85
2023/03/02 05:21:06;;;;;;;70.93;23.38;;;1.50;99.90;;;;;;5031959;28;20120;-85
2023/03/02 05:23:33;;;;;;;83.18;23.55;;;1.50;99.90;;;;;;5034903;28;20040;-85
2023/03/02 05:25:59;;;;;;;78.95;21.17;;;1.50;99.90;;;;;;5050807;28;20076;-84
2023/03/02 05:28:25;;;;;;;80.22;21.60;;;1.60;99.90;;;;;;5014742;28;20524;-84
2023/03/02 05:30:51;;;;;;;83.38;20.42;;;1.50;99.90;;;;;;5046177;28;20048;-86
2023/03/02 05:33:18;;;;;;;81.22;20.25;;;1.50;99.90;;;;;;5034307;28;20052;-85
2023/03/02 05:35:44;;;;;;;90.70;18.95;;;1.40;99.90;;;;;;5033773;28;20110;-85
2023/03/02 05:38:10;;;;;;;93.07;20.65;;;2.90;99.90;;;;;;5034570;28;20040;-85
2023/03/02 05:40:37;;;;;;;85.78;19.63;;;1.60;99.90;;;;;;5050717;28;20112;-85
2023/03/02 05:43:03;;;;;;;91.63;19.27;;;1.40;99.90;;;;;;5050612;28;20056;-85
2023/03/02 05:45:38;;;;;;;92.75;20.00;;;1.70;99.90;;;;;;5050955;28;20049;-85
2023/03/02 05:48:05;;;;;;;81.90;18.17;;;1.30;99.90;;;;;;5034190;28;20041;-84
2023/03/02 05:50:31;;;;;;;95.45;19.60;;;1.30;99.90;;;;;;5050557;28;20106;-86
2023/03/02 05:52:59;;;;;;;88.00;21.35;;;1.30;99.90;;;;;;5050398;28;20099;-84
2023/03/02 05:55:25;;;;;;;108.53;20.45;;;2.90;99.90;;;;;;5050417;28;20033;-85
2023/03/02 05:57:51;;;;;;;69.70;20.02;;;1.40;99.90;;;;;;5050219;28;20043;-84
2023/03/02 06:00:18;;;;;;;59.90;18.67;;;2.10;99.90;;;;;;5030273;28;20037;-85
2023/03/02 06:02:44;;;;;;;101.47;20.98;;;1.40;99.90;;;;;;5049105;28;20041;-83
2023/03/02 06:05:13;;;;;;;75.57;20.30;;;1.80;99.90;;;;;;5033914;28;20508;-85
2023/03/02 06:07:39;;;;;;;72.18;19.90;;;1.40;99.90;;;;;;5033429;28;20033;-85
2023/03/02 06:10:05;;;;;;;97.50;21.20;;;1.40;99.90;;;;;;5013720;28;20512;-85
2023/03/02 06:12:31;;;;;;;68.03;18.30;;;1.50;99.90;;;;;;5046583;28;20041;-85
2023/03/02 06:14:58;;;;;;;64.50;18.92;;;2.00;99.90;;;;;;5033543;28;20559;-84
2023/03/02 06:17:25;;;;;;;72.65;18.77;;;3.00;99.90;;;;;;5049879;28;20040;-84
2023/03/02 06:19:51;;;;;;;65.00;18.27;;;1.60;99.90;;;;;;5050260;28;20084;-85
2023/03/02 06:22:17;;;;;;;71.35;18.73;;;1.30;99.90;;;;;;5032945;28;20065;-85
2023/03/02 06:24:42;;;;;;;65.30;18.75;;;1.30;99.90;;;;;;5049989;28;20485;-86
2023/03/02 06:27:08;;;;;;;84.32;19.83;;;1.40;99.90;;;;;;5032981;28;20044;-85
2023/03/02 06:29:34;;;;;;;66.28;18.40;;;1.20;99.90;;;;;;5026173;28;20398;-85
2023/03/02 06:31:59;;;;;;;78.18;18.35;;;1.20;99.90;;;;;;4993855;28;20049;-85
2023/03/02 06:34:25;;;;;;;125.63;22.67;;;1.20;99.90;;;;;;5049667;28;20045;-84
2023/03/02 06:36:51;;;;;;;99.65;21.45;;;2.60;99.90;;;;;;5032123;28;20112;-85
2023/03/02 06:39:17;;;;;;;128.82;22.85;;;1.70;99.90;;;;;;5030013;28;20042;-85
2023/03/02 06:41:45;;;;;;;88.43;22.13;;;1.10;99.90;;;;;;5042658;28;20445;-85
2023/03/02 06:44:12;;;;;;;97.13;21.88;;;2.50;99.90;;;;;;5030140;28;20045;-85
2023/03/02 06:46:38;;;;;;;110.07;22.25;;;2.60;99.90;;;;;;5016037;28;20037;-85
2023/03/02 06:49:04;;;;;;;157.30;24.92;;;1.20;99.90;;;;;;5033162;28;20368;-84
2023/03/02 06:51:30;;;;;;;123.80;22.98;;;1.20;99.90;;;;;;5032317;28;20040;-84
2023/03/02 06:53:56;;;;;;;100.93;21.60;;;;;;;;;;5049178;28;20040;-85
2023/03/02 06:56:22;;;;;;;95.82;20.23;;;1.20;99.90;;;;;;5050106;28;20037;-85
2023/03/02 06:58:49;;;;;;;114.35;22.88;;;2.60;99.90;;;;;;5032952;28;20516;-85
2023/03/02 07:01:15;;;;;;;101.78;22.65;;;1.50;99.90;;;;;;5031976;28;20045;-87
2023/03/02 07:03:40;;;;;;;106.45;25.13;;;1.20;99.90;;;;;;5032893;28;20103;-85
2023/03/02 07:06:06;;;;;;;117.22;22.63;;;1.30;99.90;;;;;;5048790;28;20036;-86
2023/03/02 07:08:32;;;;;;;86.72;22.20;;;1.30;99.90;;;;;;5030833;28;20045;-84
2023/03/02 07:10:58;;;;;;;70.00;21.90;;;1.30;99.90;;;;;;5048686;28;20047;-85
2023/03/02 07:13:24;;;;;;;123.55;24.48;;;1.30;99.90;;;;;;5029402;28;20046;-85
2023/03/02 07:15:52;;;;;;;50.35;21.55;;;1.30;99.90;;;;;;5048630;28;20102;-84
2023/03/02 07:18:18;;;;;;;82.50;22.13;;;1.90;99.90;;;;;;5012643;28;20049;-86
2023/03/02 07:20:43;;;;;;;119.80;23.27;;;1.30;99.90;;;;;;5029576;28;20164;-85
2023/03/02 07:23:09;;;;;;;95.05;23.75;;;1.20;99.90;;;;;;5012638;28;20077;-86
2023/03/02 07:25:35;;;;;;;116.32;24.45;;;1.30;99.90;;;;;;5027363;28;20051;-85
2023/03/02 07:28:01;;;;;;;80.00;22.55;;;1.20;99.90;;;;;;5041570;28;20080;-85
2023/03/02 07:30:27;;;;;;;82.68;23.23;;;2.80;99.90;;;;;;5048798;28;20060;-85
2023/03/02 07:32:52;;;;;;;100.65;23.88;;;1.20;99.90;;;;;;5012052;28;20376;-86
2023/03/02 07:35:18;;;;;;;121.63;26.08;;;1.20;99.90;;;;;;5011438;28;20092;-85
2023/03/02 07:37:44;;;;;;;152.55;28.73;;;;;;;;;;5012325;28;20099;-86
2023/03/02 07:40:11;;;;;;;142.88;28.98;;;1.20;99.90;;;;;;5055430;28;20069;-85
2023/03/02 07:42:37;;;;;;;189.35;30.08;;;1.20;99.90;;;;;;5031696;28;20045;-85
2023/03/02 07:45:04;;;;;;;188.15;33.42;;;1.20;99.90;;;;;;5048460;28;20036;-84
2023/03/02 07:47:30;;;;;;;167.75;31.10;;;1.20;99.90;;;;;;5027991;28;20111;-85
2023/03/02 07:49:56;;;;;;;90.63;25.30;;;1.30;99.90;;;;;;5032198;28;20136;-85
2023/03/02 07:52:22;;;;;;;120.97;27.58;;;2.50;99.90;;;;;;5049510;28;20468;-85
2023/03/02 07:54:48;;;;;;;122.18;28.98;;;1.40;99.90;;;;;;5012108;28;20238;-84
2023/03/02 07:57:15;;;;;;;107.57;26.70;;;1.40;99.90;;;;;;5029579;28;20040;-84
2023/03/02 07:59:42;;;;;;;114.90;26.98;;;1.50;99.90;;;;;;5048538;28;20036;-85
2023/03/02 08:02:15;;;;;;;110.95;26.42;;;1.50;99.90;;;;;;5031087;28;20106;-84
2023/03/02 08:04:41;;;;;;;89.45;25.35;;;2.60;99.90;;;;;;5031959;28;20072;-83
2023/03/02 08:07:07;;;;;;;112.85;26.08;;;1.60;99.90;;;;;;5011591;28;20083;-83
2023/03/02 08:09:33;;;;;;;90.60;24.67;;;2.20;99.90;;;;;;5019087;28;20045;-84
2023/03/02 08:11:58;;;;;;;59.88;22.63;;;3.10;99.90;;;;;;5027914;28;20049;-84
2023/03/02 08:14:24;;;;;;;49.13;20.38;;;2.00;99.90;;;;;;5031629;28;20052;-84
2023/03/02 08:16:51;;;;;;;63.25;20.63;;;1.60;99.90;;;;;;5031636;28;20090;-86
2023/03/02 08:19:18;;;;;;;70.43;20.23;;;2.10;99.90;;;;;;5028415;28;20057;-86
2023/03/02 08:21:44;;;;;;;48.78;20.60;;;3.10;99.90;;;;;;5026414;28;20044;-84
2023/03/02 08:24:10;;;;;;;51.28;20.55;;;2.50;99.90;;;;;;5012009;28;20498;-85
2023/03/02 08:26:36;;;;;;;65.50;22.67;;;1.60;99.90;;;;;;5041608;28;20580;-84
2023/03/02 08:29:02;;;;;;;45.08;19.90;;;1.70;99.90;;;;;;5031755;28;20045;-84
2023/03/02 08:31:28;;;;;;;43.58;19.58;;;1.80;99.90;;;;;;5035030;28;20107;-84
2023/03/02 08:33:54;;;;;;;55.47;19.20;;;1.70;99.90;;;;;;5031426;28;20048;-85
2023/03/02 08:36:20;;;;;;;40.50;18.98;;;1.80;99.90;;;;;;5011405;28;20037;-85
2023/03/02 08:38:47;;;;;;;46.47;20.88;;;3.40;99.90;;;;;;5030450;28;20114;-85
2023/03/02 08:41:18;;;;;;;41.25;18.33;;;3.10;99.90;;;;;;5031060;28;20098;-85
2023/03/02 08:43:45;;;;;;;38.72;19.35;;;1.80;99.90;;;;;;5047877;28;20587;-86
2023/03/02 08:46:12;;;;;;;37.53;18.48;;;2.60;99.90;;;;;;5047602;28;20053;-84
2023/03/02 08:48:38;;;;;;;45.60;18.13;;;1.80;99.90;;;;;;5011968;28;20060;-84
2023/03/02 08:51:11;;;;;;;39.38;17.88;;;1.90;99.90;;;;;;5014873;28;20468;-84
2023/03/02 08:53:39;;;;;;;52.40;20.33;;;3.30;99.90;;;;;;5047911;28;20049;-85
2023/03/02 08:56:14;;;;;;;38.35;18.15;;;2.90;99.90;;;;;;5030901;28;20041;-85
2023/03/02 08:58:39;;;;;;;35.38;16.50;;;1.90;99.90;;;;;;5032754;28;20041;-84
2023/03/02 09:01:05;;;;;;;31.75;15.90;;;2.70;99.90;;;;;;5017845;28;20048;-85
2023/03/02 09:03:31;;;;;;;32.90;15.30;;;3.10;99.90;;;;;;5034993;28;20091;-84
2023/03/02 09:05:57;;;;;;;34.10;15.02;;;2.00;99.90;;;;;;5034770;28;20056;-85
2023/03/02 09:08:23;;;;;;;32.53;16.05;;;2.00;99.90;;;;;;5017940;28;20490;-84
2023/03/02 09:10:49;;;;;;;31.13;15.57;;;2.00;99.90;;;;;;5014929;28;20120;-84
2023/03/02 09:13:14;;;;;;;31.33;15.63;;;3.10;99.90;;;;;;4999801;28;20033;-85
2023/03/02 09:15:40;;;;;;;30.35;16.33;;;2.00;99.90;;;;;;5014657;28;20037;-84
2023/03/02 09:18:06;;;;;;;28.92;14.50;;;4.00;99.90;;;;;;5024988;28;20116;-84
2023/03/02 09:20:33;;;;;;;32.33;16.27;;;2.10;99.90;;;;;;5034338;28;20076;-83
2023/03/02 09:22:58;;;;;;;30.27;15.25;;;2.40;99.90;;;;;;5014607;28;20055;-85
2023/03/02 09:25:24;;;;;;;32.15;16.40;;;3.80;99.90;;;;;;5033673;28;20041;-84
2023/03/02 09:27:50;;;;;;;30.48;15.50;;;2.40;99.90;;;;;;5034200;28;20040;-84
2023/03/02 09:30:15;;;;;;;32.88;16.02;;;2.50;99.90;;;;;;5014419;28;20076;-85
2023/03/02 09:32:41;;;;;;;27.75;14.57;;;2.50;99.90;;;;;;5021408;28;20049;-84
2023/03/02 09:35:07;;;;;;;28.98;14.10;;;2.50;99.90;;;;;;5048129;28;20037;-84
2023/03/02 09:37:34;;;;;;;28.73;14.60;;;2.60;99.90;;;;;;5030828;28;20048;-84
2023/03/02 09:39:59;;;;;;;28.75;15.30;;;2.60;99.90;;;;;;5013946;28;20111;-85
2023/03/02 09:42:41;;;;;;;28.38;14.27;;;3.00;99.90;;;;;;5013907;28;20049;-84
2023/03/02 09:45:31;;;;;;;30.45;15.52;;;2.50;99.90;;;;;;5033935;28;20041;-87
2023/03/02 09:48:46;;;;;;;31.27;15.43;;;2.80;99.90;;;;;;5050465;28;20040;-84
2023/03/02 09:51:38;;;;;;;30.48;15.38;;;2.70;99.90;;;;;;5024958;28;20124;-84
2023/03/02 09:54:16;;;;;;;29.02;14.68;;;2.70;99.90;;;;;;5050546;28;20191;-83
2023/03/02 09:57:17;;;;;;;31.27;15.07;;;4.10;99.90;;;;;;5047284;28;20046;-85
2023/03/02 09:59:58;;;;;;;33.80;16.08;;;2.80;99.90;;;;;;4995973;28;20072;-84
2023/03/02 10:02:34;;;;;;;31.15;15.65;;;2.70;99.90;;;;;;5039037;28;20037;-85
2023/03/02 10:05:05;;;;;;;33.38;16.10;;;2.70;99.90;;;;;;5050172;28;20045;-85
2023/03/02 10:07:33;;;;;;;41.25;17.33;;;4.00;99.90;;;;;;5033410;28;20421;-84
2023/03/02 10:10:04;;;;;;;45.45;19.08;;;2.70;99.90;;;;;;5033442;28;20097;-85
2023/03/02 10:13:07;;;;;;;50.47;20.95;;;2.70;99.90;;;;;;5032366;28;20043;-85
2023/03/02 10:15:42;;;;;;;49.33;20.42;;;2.80;99.90;;;;;;5050174;28;20072;-86
2023/03/02 10:18:10;;;;;;;53.22;22.58;;;3.00;99.90;;;;;;5049927;28;20103;-84
2023/03/02 10:20:54;;;;;;;57.95;22.67;;;3.10;99.90;;;;;;5049188;28;20065;-85
2023/03/02 10:23:37;;;;;;;63.28;23.45;;;3.20;99.90;;;;;;5033219;28;20490;-85
2023/03/02 10:26:23;;;;;;;52.38;21.58;;;3.20;99.90;;;;;;5049350;28;20041;-85
2023/03/02 10:29:31;;;;;;;57.85;21.55;;;3.40;99.90;;;;;;5025417;28;20499;-85
2023/03/02 10:32:17;;;;;;;55.88;22.92;;;3.20;99.90;;;;;;5031871;28;20033;-85
2023/03/02 10:34:42;;;;;;;48.67;19.73;;;3.30;99.90;;;;;;5032954;28;20052;-84
2023/03/02 10:37:14;;;;;;;51.55;21.33;;;3.30;99.90;;;;;;5012831;28;20037;-84
2023/03/02 10:39:40;;;;;;;44.80;18.05;;;4.20;99.90;;;;;;5044785;28;20033;-85
2023/03/02 10:42:30;;;;;;;43.75;19.40;;;3.20;99.90;;;;;;5032496;28;20619;-85
2023/03/02 10:45:17;;;;;;;43.28;18.35;;;3.20;99.90;;;;;;5031968;28;20128;-84
2023/03/02 10:47:42;;;;;;;45.78;18.52;;;4.80;99.90;;;;;;5049506;28;20123;-86
2023/03/02 10:50:23;;;;;;;40.08;17.77;;;4.60;99.90;;;;;;5033170;28;20543;-87
2023/03/02 10:52:49;;;;;;;37.38;16.50;;;3.40;99.90;;;;;;5032419;28;20037;-84
2023/03/02 10:55:15;;;;;;;35.60;16.48;;;3.50;99.90;;;;;;5032979;28;20400;-84
2023/03/02 10:57:43;;;;;;;30.95;15.80;;;3.50;99.90;;;;;;5048860;28;20033;-83
2023/03/02 11:00:25;;;;;;;38.47;16.60;;;4.60;99.90;;;;;;5015536;28;20514;-86
2023/03/02 11:03:03;;;;;;;36.70;16.27;;;3.40;99.90;;;;;;5048873;28;20505;-85
2023/03/02 11:05:37;;;;;;;34.88;16.40;;;4.80;99.90;;;;;;5032489;28;20044;-85
2023/03/02 11:08:16;;;;;;;35.08;15.13;;;3.90;99.90;;;;;;5032151;28;20586;-84
2023/03/02 11:10:51;;;;;;;40.30;15.20;;;4.80;99.90;;;;;;5048656;28;20041;-84
2023/03/02 11:13:25;;;;;;;34.80;15.55;;;4.90;99.90;;;;;;5050300;28;20041;-84
2023/03/02 11:15:52;;;;;;;34.15;15.77;;;3.60;99.90;;;;;;5048562;28;20115;-84
2023/03/02 11:18:33;;;;;;;33.05;15.32;;;3.70;99.90;;;;;;5048892;28;20047;-84
2023/03/02 11:21:23;;;;;;;34.67;16.10;;;3.90;99.90;;;;;;5031764;28;20044;-85
2023/03/02 11:24:06;;;;;;;32.38;15.32;;;4.10;99.90;;;;;;5048903;28;20049;-84
2023/03/02 11:26:53;;;;;;;28.85;13.88;;;4.30;99.90;;;;;;5031700;28;20051;-85
2023/03/02 11:29:32;;;;;;;21.40;11.35;;;5.80;99.90;;;;;;5019186;28;20037;-85
2023/03/02 11:32:23;;;;;;;25.00;12.75;;;5.50;99.90;;;;;;5031930;28;20179;-84
2023/03/02 11:35:04;;;;;;;24.30;12.35;;;4.50;99.90;;;;;;4988979;28;20450;-85
2023/03/02 11:37:50;;;;;;;26.35;12.30;;;4.70;99.90;;;;;;5049403;28;20571;-84
2023/03/02 11:40:25;;;;;;;22.60;11.85;;;4.80;99.90;;;;;;5048965;28;20045;-85
2023/03/02 11:42:53;;;;;;;19.80;11.55;;;4.80;99.90;;;;;;5031847;28;20041;-84
2023/03/02 11:45:26;;;;;;;20.40;11.05;;;4.80;99.90;;;;;;5048589;28;20036;-85
2023/03/02 11:48:01;;;;;;;20.23;11.10;;;5.00;99.90;;;;;;5031419;28;20123;-84
2023/03/02 11:50:26;;;;;;;19.73;11.05;;;4.70;99.90;;;;;;5031930;28;20037;-85
2023/03/02 11:52:58;;;;;;;20.60;10.20;;;6.10;99.90;;;;;;5012055;28;20099;-84
2023/03/02 11:55:26;;;;;;;21.55;11.68;;;6.60;99.90;;;;;;5040326;28;20044;-87
2023/03/02 11:58:01;;;;;;;20.02;10.82;;;6.00;99.90;;;;;;5031767;28;20398;-85
2023/03/02 12:00:40;;;;;;;20.02;10.90;;;5.40;99.90;;;;;;5028533;28;20033;-85
2023/03/02 12:03:19;;;;;;;19.10;10.43;;;5.60;99.90;;;;;;5031732;28;20040;-83
2023/03/02 12:05:58;;;;;;;18.58;10.07;;;6.00;99.90;;;;;;5048160;28;20410;-85
2023/03/02 12:08:23;;;;;;;17.63;9.93;;;7.40;99.90;;;;;;5048280;28;20106;-85
2023/03/02 12:11:17;;;;;;;19.10;9.88;;;7.30;99.90;;;;;;5047764;28;20044;-85
2023/03/02 12:13:52;;;;;;;18.42;9.77;;;5.50;99.90;;;;;;5017720;28;20110;-85
2023/03/02 12:16:22;;;;;;;15.50;8.57;;;5.30;99.90;;;;;;5042999;28;20042;-84
2023/03/02 12:18:49;;;;;;;17.30;9.70;;;5.10;99.90;;;;;;5023977;28;20115;-84
2023/03/02 12:21:21;;;;;;;16.52;9.05;;;4.90;99.90;;;;;;5012341;28;20498;-85
2023/03/02 12:23:50;;;;;;;18.93;8.80;;;5.10;99.90;;;;;;5028542;28;20060;-85
2023/03/02 12:26:19;;;;;;;18.17;10.00;;;5.20;99.90;;;;;;5046892;28;20125;-85
2023/03/02 12:29:05;;;;;;;17.02;9.25;;;5.30;99.90;;;;;;5031621;28;20120;-85
2023/03/02 12:31:54;;;;;;;17.83;9.50;;;5.20;99.90;;;;;;5034596;28;20037;-85
2023/03/02 12:34:22;;;;;;;17.52;9.48;;;5.20;99.90;;;;;;5049429;28;20484;-86
2023/03/02 12:36:59;;;;;;;17.48;9.40;;;5.30;99.90;;;;;;5051632;28;20045;-85
2023/03/02 12:39:37;;;;;;;17.35;9.95;;;6.00;99.90;;;;;;5052140;28;20047;-85
2023/03/02 12:42:32;;;;;;;17.90;9.57;;;5.50;99.90;;;;;;5051430;28;20563;-84
2023/03/02 12:45:40;;;;;;;16.10;8.95;;;5.70;99.90;;;;;;5051947;28;20072;-84
2023/03/02 12:48:25;;;;;;;17.25;9.27;;;5.60;99.90;;;;;;5018229;28;20045;-84
2023/03/02 12:50:54;;;;;;;17.88;9.88;;;5.50;99.90;;;;;;5051283;28;20048;-84
2023/03/02 12:53:20;;;;;;;16.85;9.35;;;5.80;99.90;;;;;;5035166;28;20044;-85